Cairo, GA

10:45 AM EDT on August 20, 2014 (GMT -0400)
KJ4ZNK | Change Station
CLOSE
Current Station
Personal Weather Station
Location: Cairo, GA
Elevation: 302 ft
Nearby Weather Stations

Elev 302 ft 30.89 °N, 84.22 °W | Updated 5 seconds ago

Scattered Clouds
Scattered Clouds
82.8 °F
Feels Like 84 °F
N
2.3
Wind Variable Wind from WNW
Gusts 8.3 mph

Today
High -- | Low -- °F
--% Chance of Precip.
Yesterday
High -- | Low -- °F
Precip. -- in
7:06 AM 8:13 PM
Waning Crescent, 21% visible
Pressure 30.11 in
Visibility 10.0 miles
Clouds Scattered Clouds 4100 ft
Heat Index 84 °F
Dew Point 64 °F
Humidity 53%
Rainfall 0.00 in
Snow Depth Not available.
UV 5 out of 12
Pollen 7.90 out of 12
Air Quality Not available.
Flu Activity Not available.
METAR KTVI 201435Z AUTO 31008KT 10SM SCT041 28/23 A3011 RMK AO2

More Conditions Fewer Conditions

Pressure 30.11 in
Visibility 10.0 miles
Clouds Scattered Clouds 4100 ft
Heat Index 84 °F
Dew Point 64 °F
Humidity 53%
Rainfall 0.00 in
Snow Depth Not available.
UV 5 out of 12
Pollen 7.90 out of 12
Air Quality Not available.
Flu Activity Not available.
METAR KTVI 201435Z AUTO 31008KT 10SM SCT041 28/23 A3011 RMK AO2

More Conditions Fewer Conditions

10-Day Weather Forecast

Almanac

Astronomy

Aug. 20, 2014 Rise Set
Actual Time 7:06 AM EDT 8:13 PM EDT
Civil Twilight 6:40 AM EDT 8:38 PM EDT
Nautical Twilight 6:11 AM EDT 9:08 PM EDT
Astronomical Twilight 5:40 AM EDT 9:39 PM EDT
Moon 2:52 AM EDT 4:51 PM EDT
Length of Visible Light 13h 58m
Length of Day
13h 07m
Tomorrow will be 1m 41s shorter.
Waning Crescent, 21% of the Moon is Illuminated
Today
Waning Crescent
Aug 25
New
Sep 2
First Quarter
Sep 8
Full
Sep 15
Last Quarter

Today's Extremes

State Highs State Lows

Community

WunderPhotos

Upload Photos

1,745,658 photos uploaded!

Nearby

Snow Depth

Station Depth Elevation
No new snow has been reported.

Earthquake Activity

City Distance Mag. Time & Date
No recent earthquake activity has been reported nearby.
Minimum magnitude displayed is 2.5.

Coastal Water Temperatures

Place Temperature
No Stations Reporting

Nearby Weather Stations